sensor_id;sensor_type;location;lat;lon;timestamp;P1;durP1;ratioP1;P2;durP2;ratioP2
15944;SDS011;30172;48.832;8.732;2022-09-13T00:01:57;2.33;;;2.00;;
15944;SDS011;30172;48.832;8.732;2022-09-13T00:04:22;3.28;;;1.90;;
15944;SDS011;30172;48.832;8.732;2022-09-13T00:06:47;2.08;;;1.98;;
15944;SDS011;30172;48.832;8.732;2022-09-13T00:09:13;2.08;;;1.90;;
15944;SDS011;30172;48.832;8.732;2022-09-13T00:11:38;3.20;;;2.15;;
15944;SDS011;30172;48.832;8.732;2022-09-13T00:14:03;2.50;;;2.28;;
15944;SDS011;30172;48.832;8.732;2022-09-13T00:16:29;4.38;;;2.40;;
15944;SDS011;30172;48.832;8.732;2022-09-13T00:18:55;1.83;;;1.73;;
15944;SDS011;30172;48.832;8.732;2022-09-13T00:21:21;2.97;;;2.00;;
15944;SDS011;30172;48.832;8.732;2022-09-13T00:23:48;5.18;;;2.15;;
15944;SDS011;30172;48.832;8.732;2022-09-13T00:26:15;2.30;;;1.88;;
15944;SDS011;30172;48.832;8.732;2022-09-13T00:28:42;3.30;;;1.67;;
15944;SDS011;30172;48.832;8.732;2022-09-13T00:31:09;2.50;;;1.90;;
15944;SDS011;30172;48.832;8.732;2022-09-13T00:33:35;2.00;;;1.80;;
15944;SDS011;30172;48.832;8.732;2022-09-13T00:36:04;1.90;;;1.80;;
15944;SDS011;30172;48.832;8.732;2022-09-13T00:38:31;2.05;;;1.58;;
15944;SDS011;30172;48.832;8.732;2022-09-13T00:40:58;3.90;;;1.75;;
15944;SDS011;30172;48.832;8.732;2022-09-13T00:43:43;1.60;;;1.50;;
15944;SDS011;30172;48.832;8.732;2022-09-13T00:46:11;2.03;;;1.60;;
15944;SDS011;30172;48.832;8.732;2022-09-13T00:48:39;2.20;;;1.90;;
15944;SDS011;30172;48.832;8.732;2022-09-13T00:51:04;2.15;;;1.85;;
15944;SDS011;30172;48.832;8.732;2022-09-13T00:53:31;2.45;;;1.73;;
15944;SDS011;30172;48.832;8.732;2022-09-13T00:55:59;2.95;;;1.85;;
15944;SDS011;30172;48.832;8.732;2022-09-13T00:58:28;2.10;;;1.70;;
15944;SDS011;30172;48.832;8.732;2022-09-13T01:00:57;5.38;;;1.90;;
15944;SDS011;30172;48.832;8.732;2022-09-13T01:03:23;1.92;;;1.63;;
15944;SDS011;30172;48.832;8.732;2022-09-13T01:05:57;3.47;;;1.48;;
15944;SDS011;30172;48.832;8.732;2022-09-13T01:08:25;1.80;;;1.70;;
15944;SDS011;30172;48.832;8.732;2022-09-13T01:10:51;1.58;;;1.48;;
15944;SDS011;30172;48.832;8.732;2022-09-13T01:13:18;2.00;;;1.80;;
15944;SDS011;30172;48.832;8.732;2022-09-13T01:15:45;3.28;;;1.95;;
15944;SDS011;30172;48.832;8.732;2022-09-13T01:18:11;3.17;;;1.85;;
15944;SDS011;30172;48.832;8.732;2022-09-13T01:23:53;1.63;;;1.52;;
15944;SDS011;30172;48.832;8.732;2022-09-13T01:29:23;2.10;;;1.90;;
15944;SDS011;30172;48.832;8.732;2022-09-13T01:32:06;1.90;;;1.80;;
15944;SDS011;30172;48.832;8.732;2022-09-13T01:37:27;2.00;;;1.90;;
15944;SDS011;30172;48.832;8.732;2022-09-13T01:40:00;1.90;;;1.80;;
15944;SDS011;30172;48.832;8.732;2022-09-13T01:42:43;3.53;;;1.80;;
15944;SDS011;30172;48.832;8.732;2022-09-13T01:45:20;1.83;;;1.73;;
15944;SDS011;30172;48.832;8.732;2022-09-13T01:47:58;2.10;;;1.80;;
15944;SDS011;30172;48.832;8.732;2022-09-13T01:50:45;2.25;;;1.58;;
15944;SDS011;30172;48.832;8.732;2022-09-13T01:56:31;2.08;;;1.60;;
15944;SDS011;30172;48.832;8.732;2022-09-13T01:58:52;2.40;;;2.20;;
15944;SDS011;30172;48.832;8.732;2022-09-13T02:01:21;1.70;;;1.50;;
15944;SDS011;30172;48.832;8.732;2022-09-13T02:04:00;3.10;;;1.60;;
15944;SDS011;30172;48.832;8.732;2022-09-13T02:06:33;1.80;;;1.70;;
15944;SDS011;30172;48.832;8.732;2022-09-13T02:09:02;2.45;;;1.50;;
15944;SDS011;30172;48.832;8.732;2022-09-13T02:11:33;1.50;;;1.40;;
15944;SDS011;30172;48.832;8.732;2022-09-13T02:14:05;1.55;;;1.45;;
15944;SDS011;30172;48.832;8.732;2022-09-13T02:16:36;1.45;;;1.35;;
15944;SDS011;30172;48.832;8.732;2022-09-13T02:19:06;3.25;;;2.03;;
15944;SDS011;30172;48.832;8.732;2022-09-13T02:21:35;3.75;;;1.55;;
15944;SDS011;30172;48.832;8.732;2022-09-13T02:24:10;1.60;;;1.50;;
15944;SDS011;30172;48.832;8.732;2022-09-13T02:26:38;1.90;;;1.70;;
15944;SDS011;30172;48.832;8.732;2022-09-13T02:29:06;3.05;;;1.90;;
15944;SDS011;30172;48.832;8.732;2022-09-13T02:31:37;2.22;;;2.03;;
15944;SDS011;30172;48.832;8.732;2022-09-13T02:34:08;2.50;;;1.63;;
15944;SDS011;30172;48.832;8.732;2022-09-13T02:36:37;1.98;;;1.80;;
15944;SDS011;30172;48.832;8.732;2022-09-13T02:39:08;1.50;;;1.40;;
15944;SDS011;30172;48.832;8.732;2022-09-13T02:41:59;1.98;;;1.88;;
15944;SDS011;30172;48.832;8.732;2022-09-13T02:44:35;2.20;;;1.80;;
15944;SDS011;30172;48.832;8.732;2022-09-13T02:47:10;1.77;;;1.60;;
15944;SDS011;30172;48.832;8.732;2022-09-13T02:54:56;1.92;;;1.60;;
15944;SDS011;30172;48.832;8.732;2022-09-13T02:57:32;3.20;;;1.67;;
15944;SDS011;30172;48.832;8.732;2022-09-13T03:00:02;2.35;;;1.65;;
15944;SDS011;30172;48.832;8.732;2022-09-13T03:02:32;1.98;;;1.77;;
15944;SDS011;30172;48.832;8.732;2022-09-13T03:04:58;2.13;;;1.90;;
15944;SDS011;30172;48.832;8.732;2022-09-13T03:07:24;1.70;;;1.60;;
15944;SDS011;30172;48.832;8.732;2022-09-13T03:09:53;2.67;;;1.50;;
15944;SDS011;30172;48.832;8.732;2022-09-13T03:21:06;2.13;;;1.67;;
15944;SDS011;30172;48.832;8.732;2022-09-13T03:24:21;1.83;;;1.70;;
15944;SDS011;30172;48.832;8.732;2022-09-13T03:26:58;2.13;;;1.92;;
15944;SDS011;30172;48.832;8.732;2022-09-13T03:29:31;3.22;;;1.65;;
15944;SDS011;30172;48.832;8.732;2022-09-13T03:32:11;1.58;;;1.48;;
15944;SDS011;30172;48.832;8.732;2022-09-13T03:34:56;2.75;;;2.05;;
15944;SDS011;30172;48.832;8.732;2022-09-13T03:40:14;3.47;;;1.98;;
15944;SDS011;30172;48.832;8.732;2022-09-13T03:42:47;1.70;;;1.60;;
15944;SDS011;30172;48.832;8.732;2022-09-13T03:45:15;2.10;;;1.88;;
15944;SDS011;30172;48.832;8.732;2022-09-13T03:47:42;1.75;;;1.50;;
15944;SDS011;30172;48.832;8.732;2022-09-13T03:50:10;2.97;;;1.80;;
15944;SDS011;30172;48.832;8.732;2022-09-13T03:52:40;2.42;;;1.60;;
15944;SDS011;30172;48.832;8.732;2022-09-13T03:55:06;3.58;;;1.58;;
15944;SDS011;30172;48.832;8.732;2022-09-13T03:57:31;2.08;;;1.60;;
15944;SDS011;30172;48.832;8.732;2022-09-13T03:59:57;4.43;;;1.70;;
15944;SDS011;30172;48.832;8.732;2022-09-13T04:02:23;2.03;;;1.58;;
15944;SDS011;30172;48.832;8.732;2022-09-13T04:04:50;1.80;;;1.70;;
15944;SDS011;30172;48.832;8.732;2022-09-13T04:07:16;1.93;;;1.40;;
15944;SDS011;30172;48.832;8.732;2022-09-13T04:09:43;2.80;;;1.70;;
15944;SDS011;30172;48.832;8.732;2022-09-13T04:12:08;3.50;;;1.80;;
15944;SDS011;30172;48.832;8.732;2022-09-13T04:14:38;3.72;;;2.50;;
15944;SDS011;30172;48.832;8.732;2022-09-13T04:17:03;2.20;;;1.95;;
15944;SDS011;30172;48.832;8.732;2022-09-13T04:19:28;3.40;;;3.10;;
15944;SDS011;30172;48.832;8.732;2022-09-13T04:21:55;2.97;;;2.60;;
15944;SDS011;30172;48.832;8.732;2022-09-13T04:24:24;5.95;;;2.28;;
15944;SDS011;30172;48.832;8.732;2022-09-13T04:26:50;1.92;;;1.83;;
15944;SDS011;30172;48.832;8.732;2022-09-13T04:29:17;2.50;;;1.97;;
15944;SDS011;30172;48.832;8.732;2022-09-13T04:31:45;2.08;;;1.75;;
15944;SDS011;30172;48.832;8.732;2022-09-13T04:34:11;2.70;;;1.90;;
15944;SDS011;30172;48.832;8.732;2022-09-13T04:36:37;4.07;;;2.10;;
15944;SDS011;30172;48.832;8.732;2022-09-13T04:39:02;2.40;;;1.70;;
15944;SDS011;30172;48.832;8.732;2022-09-13T04:41:28;1.80;;;1.70;;
15944;SDS011;30172;48.832;8.732;2022-09-13T04:43:53;3.38;;;2.00;;
15944;SDS011;30172;48.832;8.732;2022-09-13T04:46:18;2.10;;;1.90;;
15944;SDS011;30172;48.832;8.732;2022-09-13T04:48:50;3.10;;;1.90;;
15944;SDS011;30172;48.832;8.732;2022-09-13T04:51:16;2.37;;;1.87;;
15944;SDS011;30172;48.832;8.732;2022-09-13T04:53:42;2.60;;;2.40;;
15944;SDS011;30172;48.832;8.732;2022-09-13T04:56:08;3.30;;;2.05;;
15944;SDS011;30172;48.832;8.732;2022-09-13T04:58:34;2.42;;;1.55;;
15944;SDS011;30172;48.832;8.732;2022-09-13T05:01:00;3.00;;;1.70;;
15944;SDS011;30172;48.832;8.732;2022-09-13T05:03:28;2.67;;;1.77;;
15944;SDS011;30172;48.832;8.732;2022-09-13T05:05:54;4.72;;;1.83;;
15944;SDS011;30172;48.832;8.732;2022-09-13T05:08:25;1.90;;;1.80;;
15944;SDS011;30172;48.832;8.732;2022-09-13T05:10:51;3.97;;;1.85;;
15944;SDS011;30172;48.832;8.732;2022-09-13T05:13:16;4.50;;;2.13;;
15944;SDS011;30172;48.832;8.732;2022-09-13T05:15:42;2.13;;;2.03;;
15944;SDS011;30172;48.832;8.732;2022-09-13T05:18:07;2.47;;;1.80;;
15944;SDS011;30172;48.832;8.732;2022-09-13T05:20:32;2.33;;;2.00;;
15944;SDS011;30172;48.832;8.732;2022-09-13T05:22:58;2.92;;;2.10;;
15944;SDS011;30172;48.832;8.732;2022-09-13T05:25:23;3.80;;;1.67;;
15944;SDS011;30172;48.832;8.732;2022-09-13T05:27:49;2.47;;;1.90;;
15944;SDS011;30172;48.832;8.732;2022-09-13T05:30:14;2.33;;;2.13;;
15944;SDS011;30172;48.832;8.732;2022-09-13T05:32:40;1.90;;;1.80;;
15944;SDS011;30172;48.832;8.732;2022-09-13T05:35:05;2.00;;;1.88;;
15944;SDS011;30172;48.832;8.732;2022-09-13T05:37:31;2.20;;;1.70;;
15944;SDS011;30172;48.832;8.732;2022-09-13T05:39:56;2.28;;;2.08;;
15944;SDS011;30172;48.832;8.732;2022-09-13T05:42:22;2.92;;;1.55;;
15944;SDS011;30172;48.832;8.732;2022-09-13T05:44:47;2.35;;;1.60;;
15944;SDS011;30172;48.832;8.732;2022-09-13T05:47:12;1.80;;;1.70;;
15944;SDS011;30172;48.832;8.732;2022-09-13T05:49:38;2.00;;;1.90;;
15944;SDS011;30172;48.832;8.732;2022-09-13T05:52:03;3.78;;;1.67;;
15944;SDS011;30172;48.832;8.732;2022-09-13T05:54:28;3.28;;;1.50;;
15944;SDS011;30172;48.832;8.732;2022-09-13T05:56:54;2.38;;;1.73;;
15944;SDS011;30172;48.832;8.732;2022-09-13T05:59:21;1.88;;;1.63;;
15944;SDS011;30172;48.832;8.732;2022-09-13T06:01:46;1.88;;;1.77;;
15944;SDS011;30172;48.832;8.732;2022-09-13T06:04:12;2.17;;;1.58;;
15944;SDS011;30172;48.832;8.732;2022-09-13T06:06:38;1.92;;;1.40;;
15944;SDS011;30172;48.832;8.732;2022-09-13T06:09:04;2.70;;;1.50;;
15944;SDS011;30172;48.832;8.732;2022-09-13T06:11:32;3.70;;;1.42;;
15944;SDS011;30172;48.832;8.732;2022-09-13T06:13:57;3.05;;;1.90;;
15944;SDS011;30172;48.832;8.732;2022-09-13T06:16:22;1.88;;;1.30;;
15944;SDS011;30172;48.832;8.732;2022-09-13T06:18:48;1.60;;;1.50;;
15944;SDS011;30172;48.832;8.732;2022-09-13T06:21:22;1.50;;;1.40;;
15944;SDS011;30172;48.832;8.732;2022-09-13T06:23:51;2.92;;;1.80;;
15944;SDS011;30172;48.832;8.732;2022-09-13T06:26:18;2.97;;;1.80;;
15944;SDS011;30172;48.832;8.732;2022-09-13T06:28:46;3.67;;;1.63;;
15944;SDS011;30172;48.832;8.732;2022-09-13T06:31:13;2.70;;;1.80;;
15944;SDS011;30172;48.832;8.732;2022-09-13T06:33:39;2.20;;;1.88;;
15944;SDS011;30172;48.832;8.732;2022-09-13T06:36:14;1.75;;;1.50;;
15944;SDS011;30172;48.832;8.732;2022-09-13T06:38:44;2.67;;;1.50;;
15944;SDS011;30172;48.832;8.732;2022-09-13T06:41:12;2.90;;;1.40;;
15944;SDS011;30172;48.832;8.732;2022-09-13T06:43:51;1.52;;;1.42;;
15944;SDS011;30172;48.832;8.732;2022-09-13T06:46:20;1.40;;;1.20;;
15944;SDS011;30172;48.832;8.732;2022-09-13T06:48:45;2.13;;;1.50;;
15944;SDS011;30172;48.832;8.732;2022-09-13T06:51:13;2.67;;;1.90;;
15944;SDS011;30172;48.832;8.732;2022-09-13T06:53:40;1.58;;;1.48;;
15944;SDS011;30172;48.832;8.732;2022-09-13T06:56:06;2.58;;;1.55;;
15944;SDS011;30172;48.832;8.732;2022-09-13T06:58:41;2.47;;;1.20;;
15944;SDS011;30172;48.832;8.732;2022-09-13T07:01:09;1.95;;;1.50;;
15944;SDS011;30172;48.832;8.732;2022-09-13T07:03:39;1.20;;;1.10;;
15944;SDS011;30172;48.832;8.732;2022-09-13T07:06:09;1.45;;;1.35;;
15944;SDS011;30172;48.832;8.732;2022-09-13T07:08:39;1.30;;;1.20;;
15944;SDS011;30172;48.832;8.732;2022-09-13T07:11:05;2.58;;;1.30;;
15944;SDS011;30172;48.832;8.732;2022-09-13T07:13:31;1.40;;;1.30;;
15944;SDS011;30172;48.832;8.732;2022-09-13T07:15:56;1.98;;;1.33;;
15944;SDS011;30172;48.832;8.732;2022-09-13T07:18:25;1.20;;;1.10;;
15944;SDS011;30172;48.832;8.732;2022-09-13T07:20:50;1.65;;;1.40;;
15944;SDS011;30172;48.832;8.732;2022-09-13T07:23:15;1.45;;;1.35;;
15944;SDS011;30172;48.832;8.732;2022-09-13T07:25:41;3.25;;;1.50;;
15944;SDS011;30172;48.832;8.732;2022-09-13T07:28:06;1.65;;;1.45;;
15944;SDS011;30172;48.832;8.732;2022-09-13T07:30:32;1.65;;;1.40;;
15944;SDS011;30172;48.832;8.732;2022-09-13T07:32:57;1.50;;;1.40;;
15944;SDS011;30172;48.832;8.732;2022-09-13T07:35:23;1.83;;;1.20;;
15944;SDS011;30172;48.832;8.732;2022-09-13T07:37:48;3.20;;;1.17;;
15944;SDS011;30172;48.832;8.732;2022-09-13T07:40:13;2.10;;;1.40;;
15944;SDS011;30172;48.832;8.732;2022-09-13T07:42:39;1.15;;;1.05;;
15944;SDS011;30172;48.832;8.732;2022-09-13T07:45:04;1.80;;;1.20;;
15944;SDS011;30172;48.832;8.732;2022-09-13T07:47:33;1.10;;;1.00;;
15944;SDS011;30172;48.832;8.732;2022-09-13T07:49:58;1.00;;;1.00;;
15944;SDS011;30172;48.832;8.732;2022-09-13T07:52:23;2.72;;;1.30;;
15944;SDS011;30172;48.832;8.732;2022-09-13T07:54:49;2.63;;;1.13;;
15944;SDS011;30172;48.832;8.732;2022-09-13T07:57:14;2.08;;;1.15;;
15944;SDS011;30172;48.832;8.732;2022-09-13T07:59:39;1.38;;;1.27;;
15944;SDS011;30172;48.832;8.732;2022-09-13T08:02:05;2.40;;;1.30;;
15944;SDS011;30172;48.832;8.732;2022-09-13T08:04:30;1.75;;;1.45;;
15944;SDS011;30172;48.832;8.732;2022-09-13T08:06:55;1.45;;;1.30;;
15944;SDS011;30172;48.832;8.732;2022-09-13T08:09:20;3.17;;;1.17;;
15944;SDS011;30172;48.832;8.732;2022-09-13T08:11:47;2.85;;;1.13;;
15944;SDS011;30172;48.832;8.732;2022-09-13T08:14:14;1.40;;;1.30;;
15944;SDS011;30172;48.832;8.732;2022-09-13T08:16:40;1.30;;;1.20;;
15944;SDS011;30172;48.832;8.732;2022-09-13T08:19:09;1.63;;;1.00;;
15944;SDS011;30172;48.832;8.732;2022-09-13T08:21:37;2.72;;;1.40;;
15944;SDS011;30172;48.832;8.732;2022-09-13T08:24:04;1.55;;;1.20;;
15944;SDS011;30172;48.832;8.732;2022-09-13T08:26:30;1.40;;;1.30;;
15944;SDS011;30172;48.832;8.732;2022-09-13T08:28:58;3.88;;;1.35;;
15944;SDS011;30172;48.832;8.732;2022-09-13T08:31:25;2.30;;;1.30;;
15944;SDS011;30172;48.832;8.732;2022-09-13T08:33:50;1.45;;;1.23;;
15944;SDS011;30172;48.832;8.732;2022-09-13T08:36:16;2.90;;;1.20;;
15944;SDS011;30172;48.832;8.732;2022-09-13T08:38:44;2.33;;;1.13;;
15944;SDS011;30172;48.832;8.732;2022-09-13T08:47:19;1.25;;;1.00;;
15944;SDS011;30172;48.832;8.732;2022-09-13T08:50:18;3.05;;;1.20;;
15944;SDS011;30172;48.832;8.732;2022-09-13T08:52:48;1.75;;;1.00;;
15944;SDS011;30172;48.832;8.732;2022-09-13T08:55:24;1.20;;;1.10;;
15944;SDS011;30172;48.832;8.732;2022-09-13T09:01:07;4.65;;;1.10;;
15944;SDS011;30172;48.832;8.732;2022-09-13T09:03:49;1.60;;;1.20;;
15944;SDS011;30172;48.832;8.732;2022-09-13T09:06:18;1.83;;;1.17;;
15944;SDS011;30172;48.832;8.732;2022-09-13T09:08:53;4.72;;;1.05;;
15944;SDS011;30172;48.832;8.732;2022-09-13T09:14:17;2.35;;;1.23;;
15944;SDS011;30172;48.832;8.732;2022-09-13T09:16:49;1.45;;;1.35;;
15944;SDS011;30172;48.832;8.732;2022-09-13T09:19:30;2.90;;;1.40;;
15944;SDS011;30172;48.832;8.732;2022-09-13T09:22:00;3.42;;;1.30;;
15944;SDS011;30172;48.832;8.732;2022-09-13T09:24:28;3.70;;;1.70;;
15944;SDS011;30172;48.832;8.732;2022-09-13T09:26:58;1.50;;;1.40;;
15944;SDS011;30172;48.832;8.732;2022-09-13T09:29:26;2.63;;;1.33;;
15944;SDS011;30172;48.832;8.732;2022-09-13T09:31:56;1.70;;;1.60;;
15944;SDS011;30172;48.832;8.732;2022-09-13T09:37:33;1.50;;;1.40;;
15944;SDS011;30172;48.832;8.732;2022-09-13T09:40:02;1.35;;;1.20;;
15944;SDS011;30172;48.832;8.732;2022-09-13T09:42:42;2.53;;;1.40;;
15944;SDS011;30172;48.832;8.732;2022-09-13T09:47:58;1.90;;;1.30;;
15944;SDS011;30172;48.832;8.732;2022-09-13T09:50:26;2.33;;;1.30;;
15944;SDS011;30172;48.832;8.732;2022-09-13T09:53:05;1.10;;;1.10;;
15944;SDS011;30172;48.832;8.732;2022-09-13T09:55:33;1.13;;;1.02;;
15944;SDS011;30172;48.832;8.732;2022-09-13T09:58:05;0.85;;;0.85;;
15944;SDS011;30172;48.832;8.732;2022-09-13T10:00:33;1.50;;;0.93;;
15944;SDS011;30172;48.832;8.732;2022-09-13T10:03:07;1.48;;;1.00;;
15944;SDS011;30172;48.832;8.732;2022-09-13T10:05:41;2.05;;;1.05;;
15944;SDS011;30172;48.832;8.732;2022-09-13T10:08:07;2.10;;;1.25;;
15944;SDS011;30172;48.832;8.732;2022-09-13T10:10:39;1.00;;;0.90;;
15944;SDS011;30172;48.832;8.732;2022-09-13T10:13:17;3.08;;;1.20;;
15944;SDS011;30172;48.832;8.732;2022-09-13T10:15:55;1.88;;;1.10;;
15944;SDS011;30172;48.832;8.732;2022-09-13T10:18:22;1.35;;;1.05;;
15944;SDS011;30172;48.832;8.732;2022-09-13T10:20:58;1.25;;;1.00;;
15944;SDS011;30172;48.832;8.732;2022-09-13T10:23:29;1.45;;;1.30;;
15944;SDS011;30172;48.832;8.732;2022-09-13T10:25:57;2.35;;;1.20;;
15944;SDS011;30172;48.832;8.732;2022-09-13T10:28:23;1.02;;;0.98;;
15944;SDS011;30172;48.832;8.732;2022-09-13T10:30:53;2.47;;;0.90;;
15944;SDS011;30172;48.832;8.732;2022-09-13T10:33:25;1.48;;;1.17;;
15944;SDS011;30172;48.832;8.732;2022-09-13T10:35:53;1.20;;;1.10;;
15944;SDS011;30172;48.832;8.732;2022-09-13T10:38:23;2.20;;;1.27;;
15944;SDS011;30172;48.832;8.732;2022-09-13T10:40:52;1.30;;;1.20;;
15944;SDS011;30172;48.832;8.732;2022-09-13T10:43:19;1.13;;;1.10;;
15944;SDS011;30172;48.832;8.732;2022-09-13T10:45:47;2.25;;;0.80;;
15944;SDS011;30172;48.832;8.732;2022-09-13T10:48:14;0.85;;;0.80;;
15944;SDS011;30172;48.832;8.732;2022-09-13T10:50:40;2.90;;;1.00;;
15944;SDS011;30172;48.832;8.732;2022-09-13T10:53:30;2.45;;;1.10;;
15944;SDS011;30172;48.832;8.732;2022-09-13T10:55:58;1.08;;;0.95;;
15944;SDS011;30172;48.832;8.732;2022-09-13T10:58:23;1.08;;;0.90;;
15944;SDS011;30172;48.832;8.732;2022-09-13T11:01:12;1.23;;;0.95;;
15944;SDS011;30172;48.832;8.732;2022-09-13T11:09:17;1.73;;;1.05;;
15944;SDS011;30172;48.832;8.732;2022-09-13T11:11:48;1.38;;;0.90;;
15944;SDS011;30172;48.832;8.732;2022-09-13T11:14:30;2.47;;;1.23;;
15944;SDS011;30172;48.832;8.732;2022-09-13T11:25:31;1.23;;;0.80;;
15944;SDS011;30172;48.832;8.732;2022-09-13T11:33:57;1.58;;;1.05;;
15944;SDS011;30172;48.832;8.732;2022-09-13T11:36:32;2.38;;;1.50;;
15944;SDS011;30172;48.832;8.732;2022-09-13T11:39:18;1.92;;;1.20;;
15944;SDS011;30172;48.832;8.732;2022-09-13T11:44:50;1.48;;;1.25;;
15944;SDS011;30172;48.832;8.732;2022-09-13T11:50:26;6.38;;;1.98;;
15944;SDS011;30172;48.832;8.732;2022-09-13T11:55:57;4.22;;;1.30;;
15944;SDS011;30172;48.832;8.732;2022-09-13T11:58:31;1.98;;;1.27;;
15944;SDS011;30172;48.832;8.732;2022-09-13T12:01:02;6.35;;;1.30;;
15944;SDS011;30172;48.832;8.732;2022-09-13T12:03:48;3.05;;;1.45;;
15944;SDS011;30172;48.832;8.732;2022-09-13T12:06:24;1.58;;;1.42;;
15944;SDS011;30172;48.832;8.732;2022-09-13T12:08:54;4.07;;;1.30;;
15944;SDS011;30172;48.832;8.732;2022-09-13T12:11:24;3.58;;;2.17;;
15944;SDS011;30172;48.832;8.732;2022-09-13T12:13:54;2.20;;;1.45;;
15944;SDS011;30172;48.832;8.732;2022-09-13T12:16:22;6.15;;;1.23;;
15944;SDS011;30172;48.832;8.732;2022-09-13T12:18:58;2.70;;;1.25;;
15944;SDS011;30172;48.832;8.732;2022-09-13T12:21:27;1.60;;;1.50;;
15944;SDS011;30172;48.832;8.732;2022-09-13T12:26:38;3.10;;;1.20;;
15944;SDS011;30172;48.832;8.732;2022-09-13T12:29:20;1.73;;;1.00;;
15944;SDS011;30172;48.832;8.732;2022-09-13T12:32:04;1.88;;;1.25;;
15944;SDS011;30172;48.832;8.732;2022-09-13T12:34:33;1.85;;;1.33;;
15944;SDS011;30172;48.832;8.732;2022-09-13T12:37:08;1.60;;;1.27;;
15944;SDS011;30172;48.832;8.732;2022-09-13T12:39:56;1.88;;;1.40;;
15944;SDS011;30172;48.832;8.732;2022-09-13T12:42:44;2.20;;;1.40;;
15944;SDS011;30172;48.832;8.732;2022-09-13T12:53:58;1.45;;;1.23;;
15944;SDS011;30172;48.832;8.732;2022-09-13T12:56:49;2.13;;;1.27;;
15944;SDS011;30172;48.832;8.732;2022-09-13T13:01:54;1.85;;;1.30;;
15944;SDS011;30172;48.832;8.732;2022-09-13T13:04:27;2.75;;;1.33;;
15944;SDS011;30172;48.832;8.732;2022-09-13T13:06:58;4.75;;;1.10;;
15944;SDS011;30172;48.832;8.732;2022-09-13T13:09:38;2.40;;;1.98;;
15944;SDS011;30172;48.832;8.732;2022-09-13T13:12:06;1.42;;;1.30;;
15944;SDS011;30172;48.832;8.732;2022-09-13T13:20:00;2.13;;;1.10;;
15944;SDS011;30172;48.832;8.732;2022-09-13T13:22:47;2.85;;;1.20;;
15944;SDS011;30172;48.832;8.732;2022-09-13T13:28:01;2.08;;;0.98;;
15944;SDS011;30172;48.832;8.732;2022-09-13T13:33:20;1.95;;;1.20;;
15944;SDS011;30172;48.832;8.732;2022-09-13T13:35:49;0.98;;;0.77;;
15944;SDS011;30172;48.832;8.732;2022-09-13T13:38:18;1.17;;;1.00;;
15944;SDS011;30172;48.832;8.732;2022-09-13T13:41:07;1.13;;;0.80;;
15944;SDS011;30172;48.832;8.732;2022-09-13T13:46:41;1.60;;;0.80;;
15944;SDS011;30172;48.832;8.732;2022-09-13T13:59:44;2.58;;;1.10;;
15944;SDS011;30172;48.832;8.732;2022-09-13T14:02:10;1.15;;;0.80;;
15944;SDS011;30172;48.832;8.732;2022-09-13T14:04:41;1.40;;;0.73;;
15944;SDS011;30172;48.832;8.732;2022-09-13T14:07:21;0.82;;;0.80;;
15944;SDS011;30172;48.832;8.732;2022-09-13T14:09:59;1.02;;;1.00;;
15944;SDS011;30172;48.832;8.732;2022-09-13T14:12:39;2.03;;;1.02;;
15944;SDS011;30172;48.832;8.732;2022-09-13T14:15:32;0.85;;;0.80;;
15944;SDS011;30172;48.832;8.732;2022-09-13T14:21:02;2.60;;;0.85;;
15944;SDS011;30172;48.832;8.732;2022-09-13T14:23:29;2.90;;;0.90;;
15944;SDS011;30172;48.832;8.732;2022-09-13T14:25:56;4.78;;;1.27;;
15944;SDS011;30172;48.832;8.732;2022-09-13T14:28:22;1.35;;;1.10;;
15944;SDS011;30172;48.832;8.732;2022-09-13T14:30:51;2.50;;;1.02;;
15944;SDS011;30172;48.832;8.732;2022-09-13T14:33:21;2.15;;;0.98;;
15944;SDS011;30172;48.832;8.732;2022-09-13T14:35:55;1.90;;;1.00;;
15944;SDS011;30172;48.832;8.732;2022-09-13T14:38:29;2.20;;;1.08;;
15944;SDS011;30172;48.832;8.732;2022-09-13T14:41:10;1.60;;;1.05;;
15944;SDS011;30172;48.832;8.732;2022-09-13T14:43:38;1.67;;;1.10;;
15944;SDS011;30172;48.832;8.732;2022-09-13T14:46:05;6.60;;;1.20;;
15944;SDS011;30172;48.832;8.732;2022-09-13T14:51:26;3.67;;;1.05;;
15944;SDS011;30172;48.832;8.732;2022-09-13T14:53:59;1.58;;;0.93;;
15944;SDS011;30172;48.832;8.732;2022-09-13T14:56:40;4.53;;;1.20;;
15944;SDS011;30172;48.832;8.732;2022-09-13T14:59:14;6.18;;;1.42;;
15944;SDS011;30172;48.832;8.732;2022-09-13T15:01:42;7.55;;;1.42;;
15944;SDS011;30172;48.832;8.732;2022-09-13T15:04:07;3.20;;;1.23;;
15944;SDS011;30172;48.832;8.732;2022-09-13T15:06:34;2.85;;;1.65;;
15944;SDS011;30172;48.832;8.732;2022-09-13T15:14:23;2.13;;;1.83;;
15944;SDS011;30172;48.832;8.732;2022-09-13T15:16:51;5.72;;;1.65;;
15944;SDS011;30172;48.832;8.732;2022-09-13T15:24:41;3.47;;;1.30;;
15944;SDS011;30172;48.832;8.732;2022-09-13T15:27:15;5.63;;;1.38;;
15944;SDS011;30172;48.832;8.732;2022-09-13T15:29:47;3.38;;;1.42;;
15944;SDS011;30172;48.832;8.732;2022-09-13T15:32:24;4.63;;;1.40;;
15944;SDS011;30172;48.832;8.732;2022-09-13T15:34:55;2.88;;;1.40;;
15944;SDS011;30172;48.832;8.732;2022-09-13T15:37:31;8.30;;;1.70;;
15944;SDS011;30172;48.832;8.732;2022-09-13T15:40:06;4.80;;;1.75;;
15944;SDS011;30172;48.832;8.732;2022-09-13T15:42:36;3.53;;;1.48;;
15944;SDS011;30172;48.832;8.732;2022-09-13T15:45:02;3.75;;;1.60;;
15944;SDS011;30172;48.832;8.732;2022-09-13T15:47:27;4.90;;;1.58;;
15944;SDS011;30172;48.832;8.732;2022-09-13T15:49:52;2.83;;;1.90;;
15944;SDS011;30172;48.832;8.732;2022-09-13T15:52:18;3.20;;;1.75;;
15944;SDS011;30172;48.832;8.732;2022-09-13T15:54:45;6.07;;;1.75;;
15944;SDS011;30172;48.832;8.732;2022-09-13T15:57:17;3.75;;;1.67;;
15944;SDS011;30172;48.832;8.732;2022-09-13T15:59:45;2.33;;;1.50;;
15944;SDS011;30172;48.832;8.732;2022-09-13T16:02:16;4.10;;;1.58;;
15944;SDS011;30172;48.832;8.732;2022-09-13T16:04:43;2.30;;;1.33;;
15944;SDS011;30172;48.832;8.732;2022-09-13T16:07:09;3.67;;;1.55;;
15944;SDS011;30172;48.832;8.732;2022-09-13T16:09:34;2.72;;;1.58;;
15944;SDS011;30172;48.832;8.732;2022-09-13T16:12:02;5.95;;;1.25;;
15944;SDS011;30172;48.832;8.732;2022-09-13T16:14:27;2.55;;;1.63;;
15944;SDS011;30172;48.832;8.732;2022-09-13T16:16:52;5.35;;;1.77;;
15944;SDS011;30172;48.832;8.732;2022-09-13T16:19:19;4.80;;;1.48;;
15944;SDS011;30172;48.832;8.732;2022-09-13T16:21:45;2.47;;;1.48;;
15944;SDS011;30172;48.832;8.732;2022-09-13T16:24:11;2.65;;;1.70;;
15944;SDS011;30172;48.832;8.732;2022-09-13T16:26:36;2.55;;;1.67;;
15944;SDS011;30172;48.832;8.732;2022-09-13T16:29:02;5.43;;;1.90;;
15944;SDS011;30172;48.832;8.732;2022-09-13T16:31:27;6.38;;;1.77;;
15944;SDS011;30172;48.832;8.732;2022-09-13T16:33:53;3.00;;;1.55;;
15944;SDS011;30172;48.832;8.732;2022-09-13T16:36:18;5.13;;;1.70;;
15944;SDS011;30172;48.832;8.732;2022-09-13T16:38:43;6.88;;;1.80;;
15944;SDS011;30172;48.832;8.732;2022-09-13T16:41:09;4.43;;;1.70;;
15944;SDS011;30172;48.832;8.732;2022-09-13T16:43:35;4.32;;;1.70;;
15944;SDS011;30172;48.832;8.732;2022-09-13T16:46:04;3.72;;;1.80;;
15944;SDS011;30172;48.832;8.732;2022-09-13T16:48:31;4.55;;;1.70;;
15944;SDS011;30172;48.832;8.732;2022-09-13T16:51:00;2.55;;;1.40;;
15944;SDS011;30172;48.832;8.732;2022-09-13T16:53:32;3.80;;;2.00;;
15944;SDS011;30172;48.832;8.732;2022-09-13T16:56:05;5.20;;;1.70;;
15944;SDS011;30172;48.832;8.732;2022-09-13T16:58:35;3.05;;;1.25;;
15944;SDS011;30172;48.832;8.732;2022-09-13T17:01:03;3.28;;;1.33;;
15944;SDS011;30172;48.832;8.732;2022-09-13T17:03:29;3.33;;;1.65;;
15944;SDS011;30172;48.832;8.732;2022-09-13T17:05:58;1.60;;;1.40;;
15944;SDS011;30172;48.832;8.732;2022-09-13T17:08:24;2.30;;;1.48;;
15944;SDS011;30172;48.832;8.732;2022-09-13T17:10:50;3.28;;;1.30;;
15944;SDS011;30172;48.832;8.732;2022-09-13T17:13:15;1.73;;;1.10;;
15944;SDS011;30172;48.832;8.732;2022-09-13T17:15:41;2.30;;;1.35;;